createdAt,value
2023-04-08T00:00:41.651Z,26.20
2023-04-08T00:03:08.693Z,27.87
2023-04-08T00:05:35.561Z,29.70
2023-04-08T00:08:02.174Z,31.27
2023-04-08T00:10:28.780Z,31.03
2023-04-08T00:12:55.745Z,28.77
2023-04-08T00:15:22.286Z,28.60
2023-04-08T00:17:48.801Z,30.03
2023-04-08T00:20:15.547Z,28.30
2023-04-08T00:22:42.046Z,29.00
2023-04-08T00:25:09.678Z,26.77
2023-04-08T00:27:36.234Z,26.80
2023-04-08T00:30:03.503Z,26.27
2023-04-08T00:32:30.163Z,28.63
2023-04-08T00:34:57.539Z,27.57
2023-04-08T00:37:25.058Z,28.37
2023-04-08T00:39:54.096Z,26.97
2023-04-08T00:42:23.810Z,28.40
2023-04-08T00:44:50.845Z,29.17
2023-04-08T00:47:17.363Z,27.57
2023-04-08T00:49:44.340Z,26.47
2023-04-08T00:52:11.048Z,28.30
2023-04-08T00:54:38.128Z,29.13
2023-04-08T00:57:05.415Z,28.77
2023-04-08T00:59:32.849Z,26.70
2023-04-08T01:02:19.185Z,28.37
2023-04-08T01:05:15.578Z,30.50
2023-04-08T01:07:46.835Z,29.50
2023-04-08T01:10:17.040Z,27.40
2023-04-08T01:12:49.323Z,28.97
2023-04-08T01:15:16.173Z,28.93
2023-04-08T01:17:43.399Z,30.10
2023-04-08T01:20:11.205Z,32.10
2023-04-08T01:22:43.881Z,31.90
2023-04-08T01:25:18.766Z,31.00
2023-04-08T01:27:45.860Z,30.47
2023-04-08T01:30:13.840Z,31.90
2023-04-08T01:32:41.254Z,31.73
2023-04-08T01:35:08.350Z,31.97
2023-04-08T01:37:35.827Z,30.83
2023-04-08T01:40:02.681Z,30.10
2023-04-08T01:42:29.892Z,30.33
2023-04-08T01:44:58.052Z,30.40
2023-04-08T01:47:25.740Z,31.63
2023-04-08T01:49:52.965Z,30.87
2023-04-08T01:52:20.425Z,30.23
2023-04-08T01:54:47.378Z,29.47
2023-04-08T01:57:19.831Z,31.87
2023-04-08T01:59:48.274Z,32.80
2023-04-08T02:02:15.791Z,30.70
2023-04-08T02:04:42.565Z,29.90
2023-04-08T02:07:09.554Z,32.00
2023-04-08T02:09:36.218Z,32.23
2023-04-08T02:12:03.140Z,33.07
2023-04-08T02:14:29.702Z,31.40
2023-04-08T02:17:02.478Z,34.37
2023-04-08T02:19:30.824Z,31.67
2023-04-08T02:22:04.412Z,31.77
2023-04-08T02:24:33.788Z,31.20
2023-04-08T02:27:00.806Z,30.67
2023-04-08T02:29:29.884Z,33.43
2023-04-08T02:31:56.916Z,30.20
2023-04-08T02:34:24.313Z,30.90
2023-04-08T02:36:51.999Z,30.60
2023-04-08T02:39:18.776Z,34.03
2023-04-08T02:41:48.344Z,31.40
2023-04-08T02:44:15.093Z,32.03
2023-04-08T02:46:41.817Z,31.03
2023-04-08T02:49:08.325Z,33.80
2023-04-08T02:51:34.934Z,33.30
2023-04-08T02:54:01.707Z,32.60
2023-04-08T02:56:28.328Z,32.40
2023-04-08T02:58:55.294Z,31.93
2023-04-08T03:01:22.192Z,33.63
2023-04-08T03:03:48.868Z,32.03
2023-04-08T03:06:15.511Z,32.97
2023-04-08T03:08:42.056Z,31.70
2023-04-08T03:11:09.157Z,32.50
2023-04-08T03:13:36.132Z,33.63
2023-04-08T03:16:02.877Z,33.57
2023-04-08T03:18:29.332Z,32.97
2023-04-08T03:20:55.954Z,35.03
2023-04-08T03:23:22.375Z,33.10
2023-04-08T03:25:49.117Z,32.93
2023-04-08T03:28:15.805Z,32.27
2023-04-08T03:30:42.502Z,34.13
2023-04-08T03:33:09.071Z,31.13
2023-04-08T03:35:36.101Z,35.23
2023-04-08T03:38:02.609Z,32.10
2023-04-08T03:40:29.325Z,32.77
2023-04-08T03:42:55.915Z,36.67
2023-04-08T03:45:22.399Z,35.87
2023-04-08T03:47:48.933Z,34.00
2023-04-08T03:50:15.528Z,34.83
2023-04-08T03:52:42.024Z,34.07
2023-04-08T03:55:09.030Z,37.20
2023-04-08T03:57:35.622Z,35.23
2023-04-08T04:00:02.125Z,35.60
2023-04-08T04:02:39.160Z,34.07
2023-04-08T04:05:06.265Z,36.70
2023-04-08T04:07:32.839Z,36.60
2023-04-08T04:09:59.726Z,34.93
2023-04-08T04:12:26.631Z,37.73
2023-04-08T04:14:53.585Z,36.20
2023-04-08T04:17:20.224Z,35.53
2023-04-08T04:19:46.891Z,38.40
2023-04-08T04:22:13.347Z,37.23
2023-04-08T04:24:39.851Z,35.77
2023-04-08T04:27:06.489Z,36.83
2023-04-08T04:29:33.146Z,37.23
2023-04-08T04:31:59.680Z,37.77
2023-04-08T04:34:26.134Z,41.33
2023-04-08T04:36:52.614Z,41.80
2023-04-08T04:39:19.156Z,39.90
2023-04-08T04:41:47.241Z,41.93
2023-04-08T04:44:13.765Z,40.10
2023-04-08T04:46:40.339Z,40.50
2023-04-08T04:49:06.843Z,39.63
2023-04-08T04:51:33.654Z,42.17
2023-04-08T04:54:00.396Z,42.90
2023-04-08T04:56:27.135Z,40.80
2023-04-08T04:58:53.729Z,36.83
2023-04-08T05:01:20.630Z,38.60
2023-04-08T05:03:47.272Z,37.40
2023-04-08T05:06:13.839Z,39.60
2023-04-08T05:08:40.605Z,38.10
2023-04-08T05:11:10.906Z,37.50
2023-04-08T05:13:37.444Z,40.20
2023-04-08T05:16:04.188Z,44.33
2023-04-08T05:18:30.784Z,44.83
2023-04-08T05:20:57.457Z,40.67
2023-04-08T05:23:24.040Z,44.37
2023-04-08T05:25:50.854Z,47.63
2023-04-08T05:28:17.523Z,45.83
2023-04-08T05:30:48.448Z,40.73
2023-04-08T05:33:15.000Z,44.23
2023-04-08T05:35:41.578Z,43.27
2023-04-08T05:38:08.104Z,41.60
2023-04-08T05:40:34.609Z,45.07
2023-04-08T05:43:01.426Z,44.87
2023-04-08T05:45:28.192Z,44.70
2023-04-08T05:47:54.790Z,45.63
2023-04-08T05:50:21.359Z,48.57
2023-04-08T05:52:47.854Z,48.63
2023-04-08T05:55:14.775Z,50.07
2023-04-08T05:57:41.685Z,50.87
2023-04-08T06:00:09.618Z,49.67
2023-04-08T06:02:37.604Z,50.00
2023-04-08T06:05:04.992Z,51.03
2023-04-08T06:07:32.510Z,50.80
2023-04-08T06:09:59.014Z,49.57
2023-04-08T06:12:25.644Z,51.87
2023-04-08T06:14:56.060Z,49.47
2023-04-08T06:17:22.765Z,50.47
2023-04-08T06:19:49.283Z,47.17
2023-04-08T06:22:16.153Z,48.27
2023-04-08T06:24:43.299Z,46.90
2023-04-08T06:27:10.037Z,50.30
2023-04-08T06:29:36.551Z,48.57
2023-04-08T06:32:03.171Z,47.53
2023-04-08T06:34:29.725Z,44.80
2023-04-08T06:36:56.451Z,42.80
2023-04-08T06:39:23.116Z,43.50
2023-04-08T06:41:50.066Z,43.23
2023-04-08T06:44:33.191Z,42.23
2023-04-08T06:46:59.756Z,46.97
2023-04-08T06:49:27.533Z,45.60
2023-04-08T06:51:54.199Z,46.50
2023-04-08T06:54:20.922Z,46.27
2023-04-08T06:56:47.825Z,47.50
2023-04-08T06:59:14.532Z,45.57
2023-04-08T07:01:42.032Z,48.20
2023-04-08T07:04:08.842Z,49.20
2023-04-08T07:06:35.855Z,52.47
2023-04-08T07:09:02.575Z,55.83
2023-04-08T07:11:29.408Z,50.27
2023-04-08T07:13:55.955Z,48.30
2023-04-08T07:16:22.820Z,50.47
2023-04-08T07:18:49.908Z,50.30
2023-04-08T07:21:18.536Z,54.87
2023-04-08T07:23:45.362Z,51.87
2023-04-08T07:26:11.924Z,54.03
2023-04-08T07:28:38.703Z,53.10
2023-04-08T07:31:09.580Z,58.50
2023-04-08T07:33:36.472Z,55.90
2023-04-08T07:36:03.247Z,56.47
2023-04-08T07:38:29.810Z,57.37
2023-04-08T07:40:56.406Z,58.63
2023-04-08T07:43:22.956Z,57.87
2023-04-08T07:45:49.645Z,52.43
2023-04-08T07:48:16.222Z,61.03
2023-04-08T07:51:08.846Z,52.43
2023-04-08T07:53:30.294Z,57.03
2023-04-08T07:55:56.813Z,56.30
2023-04-08T07:58:23.822Z,53.67
2023-04-08T08:00:50.582Z,49.30
2023-04-08T08:03:17.438Z,53.30
2023-04-08T08:05:44.062Z,60.70
2023-04-08T08:08:13.658Z,47.50
2023-04-08T08:10:40.689Z,43.17
2023-04-08T08:13:08.144Z,44.30
2023-04-08T08:15:35.108Z,42.80
2023-04-08T08:18:01.824Z,37.53
2023-04-08T08:20:28.420Z,36.57
2023-04-08T08:22:57.652Z,39.27
2023-04-08T08:25:26.117Z,34.57
2023-04-08T08:27:53.050Z,30.23
2023-04-08T08:30:21.872Z,38.37
2023-04-08T08:32:48.935Z,39.73
2023-04-08T08:35:15.906Z,34.70
2023-04-08T08:37:42.910Z,35.17
2023-04-08T08:40:09.853Z,38.60
2023-04-08T08:42:36.756Z,39.57
2023-04-08T08:45:03.700Z,32.83
2023-04-08T08:47:31.019Z,33.23
2023-04-08T08:49:57.740Z,31.80
2023-04-08T08:52:24.566Z,33.83
2023-04-08T08:55:01.142Z,32.97
2023-04-08T08:57:27.784Z,32.13
2023-04-08T08:59:54.590Z,35.53
2023-04-08T09:02:29.317Z,35.10
2023-04-08T09:05:01.251Z,37.57
2023-04-08T09:07:29.242Z,36.13
2023-04-08T09:09:56.365Z,37.20
2023-04-08T09:12:23.317Z,34.13
2023-04-08T09:14:50.244Z,35.40
2023-04-08T09:17:31.366Z,37.90
2023-04-08T09:20:14.070Z,36.60
2023-04-08T09:23:00.818Z,36.30
2023-04-08T09:25:29.138Z,35.20
2023-04-08T09:27:56.098Z,37.47
2023-04-08T09:30:23.979Z,39.47
2023-04-08T09:32:54.846Z,38.60
2023-04-08T09:35:22.088Z,37.23
2023-04-08T09:37:49.228Z,40.73
2023-04-08T09:40:16.355Z,42.53
2023-04-08T09:42:48.820Z,41.87
2023-04-08T09:45:16.089Z,40.93
2023-04-08T09:48:04.781Z,42.30
2023-04-08T09:50:32.748Z,40.07
2023-04-08T09:53:10.349Z,45.47
2023-04-08T09:55:37.470Z,44.40
2023-04-08T09:58:08.215Z,49.43
2023-04-08T10:00:38.853Z,42.57
2023-04-08T10:03:11.797Z,44.63
2023-04-08T10:05:40.750Z,44.20
2023-04-08T10:08:07.688Z,45.77
2023-04-08T10:10:39.364Z,46.43
2023-04-08T10:13:07.112Z,46.70
2023-04-08T10:15:34.546Z,51.00
2023-04-08T10:18:07.567Z,48.37
2023-04-08T10:20:34.416Z,50.60
2023-04-08T10:23:01.510Z,49.80
2023-04-08T10:25:30.456Z,48.07
2023-04-08T10:27:56.971Z,46.80
2023-04-08T10:30:31.526Z,50.43
2023-04-08T10:33:01.848Z,49.03
2023-04-08T10:35:32.966Z,47.43
2023-04-08T10:37:59.959Z,45.60
2023-04-08T10:40:26.529Z,43.97
2023-04-08T10:42:56.796Z,46.30
2023-04-08T10:45:23.854Z,45.27
2023-04-08T10:47:50.519Z,45.23
2023-04-08T10:50:18.011Z,45.40
2023-04-08T10:52:52.368Z,43.07
2023-04-08T10:55:23.511Z,46.03
2023-04-08T10:57:53.732Z,45.37
2023-04-08T11:00:33.237Z,45.27
2023-04-08T11:03:03.680Z,45.20
2023-04-08T11:05:31.463Z,44.37
2023-04-08T11:07:58.702Z,46.00
2023-04-08T11:10:25.674Z,48.97
2023-04-08T11:12:54.237Z,49.57
2023-04-08T11:15:21.346Z,47.40
2023-04-08T11:17:48.991Z,49.47
2023-04-08T11:20:15.852Z,48.43
2023-04-08T11:22:42.337Z,44.67
2023-04-08T11:25:10.203Z,46.83
2023-04-08T11:27:37.515Z,45.87
2023-04-08T11:30:05.679Z,41.50
2023-04-08T11:32:32.601Z,41.07
2023-04-08T11:35:04.836Z,40.07
2023-04-08T11:37:39.079Z,43.90
2023-04-08T11:40:09.525Z,44.17
2023-04-08T11:42:36.204Z,46.80
2023-04-08T11:45:09.608Z,43.53
2023-04-08T11:47:36.895Z,41.70
2023-04-08T11:50:03.889Z,33.43
2023-04-08T11:52:45.990Z,29.50
2023-04-08T11:55:13.170Z,28.30
2023-04-08T11:57:39.951Z,28.13
2023-04-08T12:00:07.625Z,26.10
2023-04-08T12:02:37.481Z,26.57
2023-04-08T12:05:04.557Z,25.23
2023-04-08T12:07:31.423Z,25.50
2023-04-08T12:09:58.301Z,23.03
2023-04-08T12:12:24.902Z,24.47
2023-04-08T12:14:51.466Z,23.67
2023-04-08T12:17:18.080Z,23.07
2023-04-08T12:19:44.756Z,21.93
2023-04-08T12:22:11.498Z,22.20
2023-04-08T12:24:38.124Z,24.43
2023-04-08T12:27:05.171Z,21.20
2023-04-08T12:29:32.007Z,21.10
2023-04-08T12:31:59.106Z,20.13
2023-04-08T12:34:25.901Z,20.93
2023-04-08T12:36:52.454Z,21.60
2023-04-08T12:39:19.002Z,23.00
2023-04-08T12:41:45.675Z,23.00
2023-04-08T12:44:12.693Z,23.63
2023-04-08T12:46:39.258Z,21.60
2023-04-08T12:49:06.455Z,20.30
2023-04-08T12:51:33.379Z,19.23
2023-04-08T12:54:01.410Z,17.70
2023-04-08T12:56:28.150Z,18.07
2023-04-08T12:58:56.147Z,17.20
2023-04-08T13:01:22.799Z,20.67
2023-04-08T13:03:49.728Z,19.60
2023-04-08T13:06:16.725Z,22.97
2023-04-08T13:08:43.287Z,18.30
2023-04-08T13:11:09.925Z,18.70
2023-04-08T13:13:36.920Z,19.17
2023-04-08T13:16:04.184Z,19.50
2023-04-08T13:18:31.070Z,19.83
2023-04-08T13:20:58.568Z,21.17
2023-04-08T13:23:25.186Z,19.90
2023-04-08T13:25:52.006Z,18.07
2023-04-08T13:28:18.841Z,21.87
2023-04-08T13:30:45.624Z,19.30
2023-04-08T13:33:12.240Z,21.20
2023-04-08T13:35:39.015Z,21.70
2023-04-08T13:38:05.987Z,19.97
2023-04-08T13:40:33.539Z,22.23
2023-04-08T13:43:00.143Z,21.80
2023-04-08T13:45:26.866Z,21.50
2023-04-08T13:47:53.620Z,20.80
2023-04-08T13:50:20.454Z,17.20
2023-04-08T13:52:47.258Z,15.50
2023-04-08T13:55:13.859Z,16.70
2023-04-08T13:57:40.695Z,17.67
2023-04-08T14:00:07.810Z,18.47
2023-04-08T14:02:37.245Z,18.83
2023-04-08T14:05:04.459Z,19.53
2023-04-08T14:07:30.969Z,18.43
2023-04-08T14:09:57.599Z,20.80
2023-04-08T14:12:24.182Z,17.43
2023-04-08T14:14:50.782Z,16.50
2023-04-08T14:17:17.871Z,17.80
2023-04-08T14:19:44.388Z,17.50
2023-04-08T14:22:11.266Z,17.00
2023-04-08T14:24:38.197Z,17.53
2023-04-08T14:27:04.942Z,20.90
2023-04-08T14:29:31.810Z,17.73
2023-04-08T14:31:59.191Z,19.07
2023-04-08T14:34:25.884Z,18.20
2023-04-08T14:36:52.790Z,17.37
2023-04-08T14:39:19.502Z,19.37
2023-04-08T14:41:47.759Z,19.30
2023-04-08T14:44:14.445Z,18.73
2023-04-08T14:46:41.361Z,18.37
2023-04-08T14:49:07.977Z,20.87
2023-04-08T14:51:37.192Z,19.60
2023-04-08T14:54:03.777Z,22.43
2023-04-08T14:56:31.440Z,20.30
2023-04-08T14:58:57.975Z,15.23
2023-04-08T15:01:24.684Z,15.13
2023-04-08T15:03:51.801Z,15.97
2023-04-08T15:06:21.077Z,15.00
2023-04-08T15:08:47.797Z,14.67
2023-04-08T15:11:14.761Z,13.20
2023-04-08T15:13:41.604Z,14.20
2023-04-08T15:16:08.678Z,13.67
2023-04-08T15:18:36.392Z,14.10
2023-04-08T15:21:03.305Z,13.57
2023-04-08T15:23:29.875Z,15.47
2023-04-08T15:25:57.747Z,13.90
2023-04-08T15:28:24.342Z,14.70
2023-04-08T15:30:51.290Z,13.50
2023-04-08T15:33:19.339Z,12.77
2023-04-08T15:35:49.608Z,13.30
2023-04-08T15:38:16.400Z,14.70
2023-04-08T15:40:43.123Z,12.73
2023-04-08T15:43:10.683Z,13.30
2023-04-08T15:45:41.836Z,13.80
2023-04-08T15:48:11.651Z,14.03
2023-04-08T15:50:38.207Z,14.07
2023-04-08T15:53:04.861Z,14.63
2023-04-08T15:55:31.452Z,13.57
2023-04-08T15:57:58.205Z,13.87
2023-04-08T16:00:24.868Z,15.50
2023-04-08T16:02:51.632Z,13.57
2023-04-08T16:05:18.539Z,16.67
2023-04-08T16:07:45.512Z,16.90
2023-04-08T16:10:12.181Z,16.13
2023-04-08T16:12:39.206Z,17.00
2023-04-08T16:15:06.206Z,18.63
2023-04-08T16:17:32.784Z,19.23
2023-04-08T16:19:59.939Z,20.13
2023-04-08T16:22:27.516Z,20.40
2023-04-08T16:24:54.206Z,19.60
2023-04-08T16:27:20.769Z,19.87
2023-04-08T16:29:47.425Z,20.17
2023-04-08T16:32:14.051Z,21.60
2023-04-08T16:34:40.669Z,22.83
2023-04-08T16:37:07.383Z,20.67
2023-04-08T16:39:34.089Z,21.73
2023-04-08T16:42:00.657Z,20.80
2023-04-08T16:44:27.288Z,32.20
2023-04-08T16:46:53.843Z,25.50
2023-04-08T16:49:20.747Z,38.20
2023-04-08T16:51:47.472Z,100.07
2023-04-08T16:54:14.423Z,44.50
2023-04-08T16:56:44.475Z,34.30
2023-04-08T16:59:11.806Z,70.40
2023-04-08T17:01:38.539Z,48.63
2023-04-08T17:04:05.429Z,51.97
2023-04-08T17:06:34.523Z,28.53
2023-04-08T17:12:07.107Z,224.87
2023-04-08T17:14:34.031Z,174.50
2023-04-08T17:17:00.669Z,126.77
2023-04-08T17:19:27.441Z,99.57
2023-04-08T17:21:54.005Z,43.03
2023-04-08T17:24:20.598Z,109.63
2023-04-08T17:26:48.181Z,177.23
2023-04-08T17:29:14.717Z,119.90
2023-04-08T17:31:41.566Z,179.23
2023-04-08T17:34:08.234Z,133.00
2023-04-08T17:36:34.885Z,54.13
2023-04-08T17:39:01.498Z,46.77
2023-04-08T17:41:39.165Z,45.47
2023-04-08T17:44:07.276Z,101.17
2023-04-08T17:46:34.098Z,152.07
2023-04-08T17:49:00.846Z,361.23
2023-04-08T17:51:28.964Z,217.57
2023-04-08T17:53:56.076Z,70.50
2023-04-08T17:56:23.416Z,74.00
2023-04-08T17:58:50.591Z,44.17
2023-04-08T18:01:17.330Z,45.80
2023-04-08T18:03:44.843Z,59.40
2023-04-08T18:06:11.522Z,47.07
2023-04-08T18:08:38.150Z,45.37
2023-04-08T18:11:05.856Z,42.50
2023-04-08T18:13:33.179Z,39.60
2023-04-08T18:15:59.889Z,36.93
2023-04-08T18:18:26.495Z,39.07
2023-04-08T18:20:53.302Z,38.73
2023-04-08T18:23:19.940Z,39.17
2023-04-08T18:25:47.179Z,41.43
2023-04-08T18:28:13.872Z,44.40
2023-04-08T18:30:40.803Z,45.53
2023-04-08T18:33:07.617Z,44.10
2023-04-08T18:35:34.200Z,45.57
2023-04-08T18:38:00.777Z,41.40
2023-04-08T18:40:28.063Z,39.87
2023-04-08T18:42:54.985Z,41.80
2023-04-08T18:45:21.529Z,44.77
2023-04-08T18:47:48.082Z,47.73
2023-04-08T18:50:14.661Z,45.47
2023-04-08T18:52:41.821Z,44.20
2023-04-08T18:55:08.424Z,46.13
2023-04-08T18:57:35.812Z,43.57
2023-04-08T19:00:02.432Z,41.40
2023-04-08T19:02:29.352Z,41.57
2023-04-08T19:04:56.347Z,41.00
2023-04-08T19:07:23.285Z,41.50
2023-04-08T19:09:50.102Z,41.10
2023-04-08T19:12:16.789Z,39.60
2023-04-08T19:14:43.394Z,42.37
2023-04-08T19:17:11.047Z,39.10
2023-04-08T19:19:38.980Z,41.90
2023-04-08T19:22:05.997Z,41.63
2023-04-08T19:24:33.024Z,39.43
2023-04-08T19:26:59.646Z,40.40
2023-04-08T19:29:28.882Z,37.60
2023-04-08T19:31:57.105Z,39.27
2023-04-08T19:34:23.667Z,38.43
2023-04-08T19:36:50.356Z,39.90
2023-04-08T19:39:17.027Z,41.50
2023-04-08T19:41:43.793Z,40.27
2023-04-08T19:44:10.532Z,41.80
2023-04-08T19:46:37.394Z,41.37
2023-04-08T19:49:04.397Z,41.53
2023-04-08T19:51:32.426Z,43.47
2023-04-08T19:53:59.024Z,47.07
2023-04-08T19:56:25.811Z,48.57
2023-04-08T19:58:52.612Z,46.37
2023-04-08T20:01:19.458Z,50.07
2023-04-08T20:03:50.678Z,51.93
2023-04-08T20:06:17.904Z,52.27
2023-04-08T20:08:44.806Z,50.50
2023-04-08T20:11:11.924Z,49.40
2023-04-08T20:13:39.963Z,48.37
2023-04-08T20:16:07.430Z,45.30
2023-04-08T20:18:34.374Z,47.07
2023-04-08T20:21:01.086Z,46.17
2023-04-08T20:23:28.478Z,44.30
2023-04-08T20:25:55.140Z,47.77
2023-04-08T20:28:21.752Z,49.30
2023-04-08T20:30:48.329Z,46.30
2023-04-08T20:33:15.400Z,47.93
2023-04-08T20:35:41.917Z,48.73
2023-04-08T20:38:08.503Z,47.50
2023-04-08T20:40:35.201Z,49.40
2023-04-08T20:43:02.376Z,46.90
2023-04-08T20:45:28.919Z,47.67
2023-04-08T20:47:55.629Z,45.47
2023-04-08T20:50:22.314Z,50.20
2023-04-08T20:52:49.141Z,47.17
2023-04-08T20:55:15.870Z,48.23
2023-04-08T20:57:44.197Z,47.83
2023-04-08T21:00:11.135Z,50.03
2023-04-08T21:02:38.052Z,47.23
2023-04-08T21:05:04.858Z,45.53
2023-04-08T21:07:31.499Z,44.00
2023-04-08T21:09:58.034Z,43.93
2023-04-08T21:12:24.796Z,47.40
2023-04-08T21:14:51.399Z,45.43
2023-04-08T21:17:18.134Z,44.83
2023-04-08T21:19:45.057Z,48.00
2023-04-08T21:22:11.653Z,45.97
2023-04-08T21:24:38.330Z,42.90
2023-04-08T21:27:05.173Z,44.67
2023-04-08T21:29:31.816Z,46.37
2023-04-08T21:31:58.508Z,44.17
2023-04-08T21:34:25.703Z,45.17
2023-04-08T21:36:52.610Z,38.80
2023-04-08T21:39:20.237Z,44.70
2023-04-08T21:41:48.169Z,42.87
2023-04-08T21:44:15.720Z,44.73
2023-04-08T21:46:42.218Z,44.70
2023-04-08T21:49:11.170Z,45.50
2023-04-08T21:51:38.957Z,47.50
2023-04-08T21:54:05.682Z,44.50
2023-04-08T21:56:32.245Z,47.83
2023-04-08T21:58:58.782Z,43.00
2023-04-08T22:01:25.494Z,44.47
2023-04-08T22:03:55.265Z,41.03
2023-04-08T22:06:31.499Z,43.10
2023-04-08T22:08:59.433Z,44.50
2023-04-08T22:11:26.130Z,42.20
2023-04-08T22:13:52.806Z,44.43
2023-04-08T22:16:19.507Z,43.40
2023-04-08T22:18:46.597Z,43.83
2023-04-08T22:21:13.226Z,39.00
2023-04-08T22:23:40.619Z,43.33
2023-04-08T22:26:07.311Z,42.40
2023-04-08T22:28:34.625Z,47.30
2023-04-08T22:31:01.494Z,45.87
2023-04-08T22:33:28.248Z,50.10
2023-04-08T22:35:56.679Z,49.50
2023-04-08T22:38:23.574Z,48.93
2023-04-08T22:40:50.113Z,51.50
2023-04-08T22:43:16.600Z,48.80
2023-04-08T22:45:43.102Z,50.30
2023-04-08T22:48:09.702Z,50.90
2023-04-08T22:50:36.550Z,50.37
2023-04-08T22:53:03.705Z,48.10
2023-04-08T22:55:30.865Z,50.57
2023-04-08T22:57:57.397Z,52.00
2023-04-08T23:00:23.976Z,52.27
2023-04-08T23:02:50.732Z,57.30
2023-04-08T23:05:17.630Z,57.40
2023-04-08T23:07:44.160Z,58.13
2023-04-08T23:10:11.024Z,55.10
2023-04-08T23:12:37.611Z,63.87
2023-04-08T23:15:04.513Z,59.40
2023-04-08T23:17:31.224Z,59.83
2023-04-08T23:19:57.937Z,59.87
2023-04-08T23:22:24.626Z,64.20
2023-04-08T23:24:51.248Z,64.37
2023-04-08T23:27:17.791Z,67.83
2023-04-08T23:29:44.254Z,68.37
2023-04-08T23:32:10.853Z,61.33
2023-04-08T23:34:37.880Z,60.30
2023-04-08T23:37:04.491Z,64.47
2023-04-08T23:39:31.572Z,62.30
2023-04-08T23:41:58.292Z,63.13
2023-04-08T23:44:24.763Z,61.43
2023-04-08T23:46:51.587Z,67.27
2023-04-08T23:49:18.244Z,76.10
2023-04-08T23:51:44.963Z,68.00
2023-04-08T23:54:11.583Z,72.30
2023-04-08T23:56:40.319Z,67.87
2023-04-08T23:59:06.831Z,71.37
